Time;durP1;ratioP1;P1;durP2;ratioP2;P2;SDS_P1;SDS_P2;PMS_P1;PMS_P2;Temp;Humidity;BMP_temperature;BMP_pressure;BME280_temperature;BME280_humidity;BME280_pressure;Samples;Min_cycle;Max_cycle;Signal;HPM_P1;HPM_P2
2023/01/01 00:00:48;;;;;;;;;;;18.50;52.50;;;;;;10250851;28;1901;-75
2023/01/01 00:05:43;;;;;;;;;;;18.50;52.50;;;;;;10251236;28;842;-75
2023/01/01 00:10:39;;;;;;;;;;;18.50;52.60;;;;;;10250453;28;854;-75
2023/01/01 00:15:34;;;;;;;;;;;18.50;52.50;;;;;;10250260;28;894;-75
2023/01/01 00:20:30;;;;;;;;;;;18.50;52.40;;;;;;10250004;28;1965;-75
2023/01/01 00:25:25;;;;;;;;;;;18.50;52.40;;;;;;10249877;28;861;-74
2023/01/01 00:30:20;;;;;;;;;;;18.50;52.50;;;;;;10250849;28;846;-74
2023/01/01 00:35:17;;;;;;;;;;;18.50;52.40;;;;;;10249642;28;1324;-75
2023/01/01 00:40:12;;;;;;;;;;;18.50;52.50;;;;;;10248708;28;1983;-74
2023/01/01 00:45:07;;;;;;;;;;;18.50;52.40;;;;;;10249656;28;946;-74
2023/01/01 00:50:03;;;;;;;;;;;18.50;52.40;;;;;;10249244;28;901;-74
2023/01/01 00:54:58;;;;;;;;;;;18.50;52.40;;;;;;10248735;28;1617;-74
2023/01/01 00:59:53;;;;;;;;;;;18.50;52.40;;;;;;10249263;28;933;-74
2023/01/01 01:04:49;;;;;;;;;;;18.50;52.40;;;;;;10247343;28;1973;-74
2023/01/01 01:09:44;;;;;;;;;;;18.50;52.40;;;;;;10248874;28;893;-74
2023/01/01 01:14:40;;;;;;;;;;;18.50;52.30;;;;;;10248038;28;866;-74
2023/01/01 01:19:35;;;;;;;;;;;18.50;52.20;;;;;;10247858;28;826;-74
2023/01/01 01:24:30;;;;;;;;;;;18.50;52.20;;;;;;10247616;28;1902;-74
2023/01/01 01:29:26;;;;;;;;;;;18.50;52.10;;;;;;10248216;28;896;-74
2023/01/01 01:34:21;;;;;;;;;;;18.50;52.00;;;;;;10247620;28;1136;-74
2023/01/01 01:39:16;;;;;;;;;;;18.50;52.00;;;;;;10247107;28;781;-74
2023/01/01 01:44:12;;;;;;;;;;;18.50;52.00;;;;;;10246864;28;1972;-74
2023/01/01 01:49:07;;;;;;;;;;;18.50;52.00;;;;;;10247300;28;857;-74
2023/01/01 01:54:03;;;;;;;;;;;18.50;51.90;;;;;;10246750;28;1035;-74
2023/01/01 01:58:58;;;;;;;;;;;18.50;51.90;;;;;;10246336;28;817;-74
2023/01/01 02:03:53;;;;;;;;;;;18.50;51.80;;;;;;10246646;28;1901;-74
2023/01/01 02:08:49;;;;;;;;;;;18.50;51.70;;;;;;10245965;28;779;-74
2023/01/01 02:13:44;;;;;;;;;;;18.50;51.70;;;;;;10245742;28;880;-74
2023/01/01 02:18:39;;;;;;;;;;;18.50;51.60;;;;;;10246008;28;908;-74
2023/01/01 02:23:35;;;;;;;;;;;18.50;51.50;;;;;;10245911;28;1967;-74
2023/01/01 02:28:30;;;;;;;;;;;18.50;51.50;;;;;;10244694;28;850;-74
2023/01/01 02:33:25;;;;;;;;;;;18.50;51.50;;;;;;10244883;28;1403;-74
2023/01/01 02:38:21;;;;;;;;;;;18.50;52.00;;;;;;10244953;28;905;-74
2023/01/01 02:43:16;;;;;;;;;;;18.50;51.30;;;;;;10244710;28;1882;-74
2023/01/01 02:48:11;;;;;;;;;;;18.50;51.30;;;;;;10244637;28;773;-74
2023/01/01 02:53:07;;;;;;;;;;;18.50;51.30;;;;;;10243886;28;862;-74
2023/01/01 03:00:17;;;;;;;;;;;18.50;51.20;;;;;;10244299;28;919;-74
2023/01/01 03:03:18;;;;;;;;;;;18.50;51.10;;;;;;10243428;28;1952;-74
2023/01/01 03:08:13;;;;;;;;;;;18.50;51.00;;;;;;10244133;28;847;-74
2023/01/01 03:13:08;;;;;;;;;;;18.50;50.90;;;;;;10244208;28;751;-74
2023/01/01 03:18:04;;;;;;;;;;;18.50;50.80;;;;;;10244513;28;850;-74
2023/01/01 03:22:59;;;;;;;;;;;18.50;50.70;;;;;;10243882;28;1874;-74
2023/01/01 03:27:56;;;;;;;;;;;18.40;50.80;;;;;;10247096;28;862;-74
2023/01/01 03:33:00;;;;;;;;;;;18.50;50.80;;;;;;10251341;28;1243;-74
2023/01/01 03:37:56;;;;;;;;;;;18.50;50.80;;;;;;10252391;28;1529;-74
2023/01/01 03:42:51;;;;;;;;;;;18.50;50.80;;;;;;10251516;28;1918;-74
2023/01/01 03:47:46;;;;;;;;;;;18.50;50.70;;;;;;10251352;28;777;-74
2023/01/01 03:52:42;;;;;;;;;;;18.40;50.40;;;;;;10251147;28;951;-74
2023/01/01 03:57:37;;;;;;;;;;;18.40;50.60;;;;;;10251048;28;865;-74
2023/01/01 04:02:33;;;;;;;;;;;18.50;50.60;;;;;;10250887;28;1982;-74
2023/01/01 04:07:28;;;;;;;;;;;18.50;50.60;;;;;;10250764;28;797;-74
2023/01/01 04:12:23;;;;;;;;;;;18.50;50.60;;;;;;10250409;28;838;-75
2023/01/01 04:17:19;;;;;;;;;;;18.50;50.50;;;;;;10250507;28;913;-74
2023/01/01 04:22:16;;;;;;;;;;;18.50;50.50;;;;;;10249987;28;1957;-74
2023/01/01 04:27:11;;;;;;;;;;;18.50;50.50;;;;;;10250058;28;944;-75
2023/01/01 04:32:06;;;;;;;;;;;18.50;50.60;;;;;;10249100;28;1088;-74
2023/01/01 04:37:02;;;;;;;;;;;18.50;50.40;;;;;;10249292;28;898;-74
2023/01/01 04:41:57;;;;;;;;;;;18.50;50.50;;;;;;10249256;28;1910;-74
2023/01/01 04:46:52;;;;;;;;;;;18.50;50.50;;;;;;10249082;28;972;-74
2023/01/01 04:51:48;;;;;;;;;;;18.50;50.40;;;;;;10249195;28;814;-74
2023/01/01 04:56:43;;;;;;;;;;;18.50;50.50;;;;;;10249319;28;822;-74
2023/01/01 05:01:38;;;;;;;;;;;18.50;50.50;;;;;;10247754;28;1910;-74
2023/01/01 05:06:34;;;;;;;;;;;18.50;50.40;;;;;;10248392;28;913;-74
2023/01/01 05:11:29;;;;;;;;;;;18.50;50.40;;;;;;10248294;28;862;-75
2023/01/01 05:16:24;;;;;;;;;;;18.50;50.50;;;;;;10248039;28;808;-75
2023/01/01 05:21:20;;;;;;;;;;;18.40;50.40;;;;;;10248502;28;1919;-75
2023/01/01 05:26:15;;;;;;;;;;;18.40;50.40;;;;;;10247103;28;933;-75
2023/01/01 05:31:11;;;;;;;;;;;18.50;50.40;;;;;;10248088;28;869;-75
2023/01/01 05:36:06;;;;;;;;;;;18.50;50.40;;;;;;10247132;28;1236;-74
2023/01/01 05:41:01;;;;;;;;;;;18.50;50.40;;;;;;10247849;28;1917;-74
2023/01/01 05:45:57;;;;;;;;;;;18.50;50.40;;;;;;10246320;28;914;-74
2023/01/01 05:50:52;;;;;;;;;;;18.50;50.40;;;;;;10245718;28;893;-74
2023/01/01 05:55:48;;;;;;;;;;;18.60;50.40;;;;;;10247239;28;959;-74
2023/01/01 06:00:43;;;;;;;;;;;18.60;50.40;;;;;;10247386;28;1966;-75
2023/01/01 06:05:38;;;;;;;;;;;18.60;50.40;;;;;;10246155;28;872;-75
2023/01/01 06:10:34;;;;;;;;;;;18.60;50.30;;;;;;10246791;28;852;-74
2023/01/01 06:15:29;;;;;;;;;;;18.60;50.30;;;;;;10246445;28;834;-74
2023/01/01 06:20:24;;;;;;;;;;;18.60;50.30;;;;;;10246226;28;1907;-74
2023/01/01 06:25:20;;;;;;;;;;;18.60;50.30;;;;;;10245124;28;891;-75
2023/01/01 06:30:15;;;;;;;;;;;18.60;50.40;;;;;;10243682;28;853;-74
2023/01/01 06:35:10;;;;;;;;;;;18.70;50.50;;;;;;10244983;28;1387;-74
2023/01/01 06:40:06;;;;;;;;;;;18.70;50.50;;;;;;10244712;28;786;-74
2023/01/01 06:45:01;;;;;;;;;;;18.70;50.50;;;;;;10244405;28;1911;-74
2023/01/01 06:49:57;;;;;;;;;;;18.70;50.50;;;;;;10244929;28;834;-75
2023/01/01 06:54:52;;;;;;;;;;;18.70;50.50;;;;;;10244768;28;860;-75
2023/01/01 06:59:47;;;;;;;;;;;18.60;50.50;;;;;;10244004;28;908;-74
2023/01/01 07:04:43;;;;;;;;;;;18.70;50.50;;;;;;10243664;28;1907;-74
2023/01/01 07:09:38;;;;;;;;;;;18.70;50.50;;;;;;10243852;28;778;-75
2023/01/01 07:14:34;;;;;;;;;;;18.70;50.50;;;;;;10244526;28;903;-75
2023/01/01 07:19:29;;;;;;;;;;;18.70;50.50;;;;;;10243704;28;851;-75
2023/01/01 07:24:25;;;;;;;;;;;18.70;50.50;;;;;;10244139;28;1894;-75
2023/01/01 07:29:20;;;;;;;;;;;18.70;50.50;;;;;;10244137;28;841;-71
2023/01/01 07:34:15;;;;;;;;;;;18.70;50.50;;;;;;10243659;28;1321;-71
2023/01/01 07:39:11;;;;;;;;;;;18.80;50.90;;;;;;10243983;28;873;-71
2023/01/01 07:44:06;;;;;;;;;;;18.90;51.10;;;;;;10243418;28;1910;-71
2023/01/01 07:49:01;;;;;;;;;;;18.90;51.10;;;;;;10242779;28;893;-71
2023/01/01 07:53:57;;;;;;;;;;;18.90;51.00;;;;;;10244076;28;758;-71
2023/01/01 07:58:52;;;;;;;;;;;18.90;51.10;;;;;;10243791;28;993;-71
2023/01/01 08:03:47;;;;;;;;;;;18.90;51.10;;;;;;10242914;28;1959;-71
2023/01/01 08:08:43;;;;;;;;;;;18.90;51.00;;;;;;10242993;28;802;-71
2023/01/01 08:13:38;;;;;;;;;;;18.90;51.00;;;;;;10245076;28;980;-71
2023/01/01 08:18:34;;;;;;;;;;;19.00;51.10;;;;;;10250283;28;1081;-71
2023/01/01 08:23:29;;;;;;;;;;;19.00;51.00;;;;;;10250009;28;1895;-71
2023/01/01 08:28:24;;;;;;;;;;;19.00;51.30;;;;;;10249892;28;898;-71
2023/01/01 08:33:21;;;;;;;;;;;19.00;51.50;;;;;;10249503;28;1334;-71
2023/01/01 08:38:17;;;;;;;;;;;19.00;51.50;;;;;;10249978;28;795;-71
2023/01/01 08:43:12;;;;;;;;;;;19.00;51.30;;;;;;10249535;28;1962;-71
2023/01/01 08:48:07;;;;;;;;;;;19.00;51.50;;;;;;10249323;28;908;-71
2023/01/01 08:53:03;;;;;;;;;;;19.00;51.40;;;;;;10249047;28;942;-71
2023/01/01 08:57:58;;;;;;;;;;;19.00;51.50;;;;;;10248572;28;798;-71
2023/01/01 09:02:54;;;;;;;;;;;19.00;51.20;;;;;;10248545;28;1990;-71
2023/01/01 09:07:49;;;;;;;;;;;19.00;51.50;;;;;;10248119;28;851;-71
2023/01/01 09:12:44;;;;;;;;;;;19.00;51.50;;;;;;10247444;28;849;-71
2023/01/01 09:17:40;;;;;;;;;;;19.00;51.40;;;;;;10247837;28;841;-71
2023/01/01 09:22:35;;;;;;;;;;;19.00;51.30;;;;;;10247531;28;1950;-71
2023/01/01 09:27:30;;;;;;;;;;;19.00;51.20;;;;;;10246584;28;814;-70
2023/01/01 09:32:26;;;;;;;;;;;19.00;51.30;;;;;;10247617;28;1313;-72
2023/01/01 09:37:21;;;;;;;;;;;19.00;51.90;;;;;;10247776;28;865;-72
2023/01/01 09:42:16;;;;;;;;;;;19.00;51.30;;;;;;10247008;28;1969;-71
2023/01/01 09:47:12;;;;;;;;;;;19.10;51.20;;;;;;10246671;28;890;-71
2023/01/01 09:52:07;;;;;;;;;;;19.00;51.20;;;;;;10246386;28;750;-71
2023/01/01 09:57:07;;;;;;;;;;;19.10;51.40;;;;;;10246225;28;838;-72
2023/01/01 10:02:03;;;;;;;;;;;19.00;51.40;;;;;;10246912;28;1902;-72
2023/01/01 10:06:58;;;;;;;;;;;19.00;51.50;;;;;;10245259;28;869;-71
2023/01/01 10:11:53;;;;;;;;;;;19.00;51.40;;;;;;10246248;28;801;-71
2023/01/01 10:16:49;;;;;;;;;;;19.10;51.20;;;;;;10246036;28;1152;-71
2023/01/01 10:21:45;;;;;;;;;;;19.00;51.40;;;;;;10245153;28;1969;-71
2023/01/01 10:26:40;;;;;;;;;;;19.10;51.40;;;;;;10245555;28;886;-71
2023/01/01 10:31:36;;;;;;;;;;;19.00;51.30;;;;;;10244437;28;992;-71
2023/01/01 10:36:31;;;;;;;;;;;19.10;51.40;;;;;;10244689;28;1428;-71
2023/01/01 10:41:26;;;;;;;;;;;19.00;51.60;;;;;;10244688;28;1950;-71
2023/01/01 10:46:22;;;;;;;;;;;19.10;51.40;;;;;;10244467;28;1114;-71
2023/01/01 10:51:23;;;;;;;;;;;19.10;51.60;;;;;;10244308;28;1113;-71
2023/01/01 10:56:18;;;;;;;;;;;19.00;51.70;;;;;;10244903;28;833;-71
2023/01/01 11:01:14;;;;;;;;;;;19.10;51.80;;;;;;10243423;28;1894;-71
2023/01/01 11:06:09;;;;;;;;;;;19.10;51.80;;;;;;10243368;28;988;-71
2023/01/01 11:11:05;;;;;;;;;;;19.10;51.90;;;;;;10243829;28;869;-71
2023/01/01 11:16:00;;;;;;;;;;;19.10;52.10;;;;;;10243787;28;830;-71
2023/01/01 11:20:55;;;;;;;;;;;19.10;52.00;;;;;;10243582;28;1933;-71
2023/01/01 11:25:51;;;;;;;;;;;19.10;51.90;;;;;;10244908;28;871;-71
2023/01/01 11:30:46;;;;;;;;;;;19.10;52.10;;;;;;10243494;28;763;-71
2023/01/01 11:35:41;;;;;;;;;;;19.10;52.00;;;;;;10244430;28;1256;-71
2023/01/01 11:40:37;;;;;;;;;;;19.10;52.00;;;;;;10243267;28;1914;-71
2023/01/01 11:45:33;;;;;;;;;;;19.10;51.90;;;;;;10243259;28;810;-71
2023/01/01 11:50:29;;;;;;;;;;;19.10;51.90;;;;;;10248355;28;873;-71
2023/01/01 11:55:24;;;;;;;;;;;19.10;51.90;;;;;;10250981;28;778;-71
2023/01/01 12:00:19;;;;;;;;;;;19.10;51.70;;;;;;10250730;28;880;-71
2023/01/01 12:05:15;;;;;;;;;;;19.10;51.90;;;;;;10250638;28;1910;-69
2023/01/01 12:10:12;;;;;;;;;;;19.10;51.80;;;;;;10247604;28;1047;-70
2023/01/01 12:15:07;;;;;;;;;;;19.10;52.00;;;;;;10249842;28;841;-70
2023/01/01 12:20:03;;;;;;;;;;;19.10;52.00;;;;;;10249967;28;843;-71
2023/01/01 12:24:59;;;;;;;;;;;19.10;52.30;;;;;;10249479;28;1963;-70
2023/01/01 12:29:54;;;;;;;;;;;19.20;52.50;;;;;;10248867;28;1045;-71
2023/01/01 12:34:49;;;;;;;;;;;19.10;52.70;;;;;;10249348;28;1090;-70
2023/01/01 12:39:45;;;;;;;;;;;19.10;53.10;;;;;;10248866;28;869;-71
2023/01/01 12:44:40;;;;;;;;;;;19.20;53.30;;;;;;10215312;28;1918;-70
2023/01/01 12:49:35;;;;;;;;;;;19.20;53.00;;;;;;10208514;28;1375;-70
2023/01/01 12:54:31;;;;;;;;;;;19.20;53.10;;;;;;10208668;28;883;-70
2023/01/01 12:59:26;;;;;;;;;;;19.10;53.00;;;;;;10225003;28;1184;-70
2023/01/01 13:04:21;;;;;;;;;;;19.20;53.20;;;;;;10248544;28;1910;-70
2023/01/01 13:09:17;;;;;;;;;;;19.20;53.00;;;;;;10248138;28;928;-70
2023/01/01 13:14:12;;;;;;;;;;;19.20;53.00;;;;;;10214551;28;904;-70
2023/01/01 13:19:08;;;;;;;;;;;19.20;52.90;;;;;;10206587;28;865;-71
2023/01/01 13:24:03;;;;;;;;;;;19.20;53.00;;;;;;10205880;28;1914;-70
2023/01/01 13:29:04;;;;;;;;;;;19.20;52.90;;;;;;10206474;28;965;-70
2023/01/01 13:33:59;;;;;;;;;;;19.20;52.80;;;;;;10207067;28;1220;-70
2023/01/01 13:38:54;;;;;;;;;;;19.20;52.80;;;;;;10214963;28;1038;-70
2023/01/01 13:43:50;;;;;;;;;;;19.20;52.60;;;;;;10246916;28;1898;-70
2023/01/01 13:48:45;;;;;;;;;;;19.20;52.60;;;;;;10246705;28;774;-70
2023/01/01 13:53:41;;;;;;;;;;;19.20;52.80;;;;;;10247085;28;806;-70
2023/01/01 13:58:36;;;;;;;;;;;19.20;52.90;;;;;;10247888;28;892;-70
2023/01/01 14:03:31;;;;;;;;;;;19.20;52.90;;;;;;10246087;28;1906;-70
2023/01/01 14:08:27;;;;;;;;;;;19.10;52.70;;;;;;10246195;28;835;-70
2023/01/01 14:13:27;;;;;;;;;;;19.20;52.80;;;;;;10245500;28;965;-70
2023/01/01 14:18:22;;;;;;;;;;;19.20;52.80;;;;;;10246519;28;770;-70
2023/01/01 14:23:18;;;;;;;;;;;19.20;52.70;;;;;;10245673;28;1972;-70
2023/01/01 14:28:13;;;;;;;;;;;19.20;52.70;;;;;;10246053;28;884;-70
2023/01/01 14:33:08;;;;;;;;;;;19.20;52.60;;;;;;10244807;28;1326;-70
2023/01/01 14:38:04;;;;;;;;;;;19.20;52.80;;;;;;10245099;28;878;-70
2023/01/01 14:42:59;;;;;;;;;;;19.20;52.80;;;;;;10244505;28;1918;-70
2023/01/01 14:47:55;;;;;;;;;;;19.20;53.00;;;;;;10244650;28;910;-70
2023/01/01 14:52:50;;;;;;;;;;;19.20;53.00;;;;;;10244063;28;1092;-70
2023/01/01 14:57:46;;;;;;;;;;;19.20;52.70;;;;;;10244337;28;878;-69
2023/01/01 15:02:41;;;;;;;;;;;19.20;52.80;;;;;;10245312;28;1910;-70
2023/01/01 15:07:36;;;;;;;;;;;19.20;53.00;;;;;;10244230;28;976;-70
2023/01/01 15:12:32;;;;;;;;;;;19.20;53.20;;;;;;10244788;28;764;-70
2023/01/01 15:17:27;;;;;;;;;;;19.20;53.10;;;;;;10244593;28;818;-69
2023/01/01 15:22:22;;;;;;;;;;;19.20;53.20;;;;;;10245044;28;1910;-70
2023/01/01 15:27:18;;;;;;;;;;;19.20;53.50;;;;;;10252525;28;863;-70
2023/01/01 15:32:13;;;;;;;;;;;19.20;53.40;;;;;;10251372;28;1824;-75
2023/01/01 15:37:08;;;;;;;;;;;19.20;53.40;;;;;;10251507;28;861;-75
2023/01/01 15:42:04;;;;;;;;;;;19.20;53.50;;;;;;10252268;28;1922;-70
2023/01/01 15:46:59;;;;;;;;;;;19.20;53.30;;;;;;10252194;28;869;-70
2023/01/01 15:51:54;;;;;;;;;;;19.20;53.20;;;;;;10251621;28;893;-71
2023/01/01 15:56:50;;;;;;;;;;;19.30;53.20;;;;;;10250638;28;848;-72
2023/01/01 16:01:45;;;;;;;;;;;19.30;53.20;;;;;;10251541;28;1910;-71
2023/01/01 16:06:41;;;;;;;;;;;19.20;53.30;;;;;;10250887;28;806;-71
2023/01/01 16:11:37;;;;;;;;;;;19.30;53.30;;;;;;10250612;28;986;-71
2023/01/01 16:16:32;;;;;;;;;;;19.20;53.10;;;;;;10250495;28;961;-75
2023/01/01 16:21:27;;;;;;;;;;;19.20;53.40;;;;;;10250228;28;1898;-75
2023/01/01 16:26:23;;;;;;;;;;;19.10;53.40;;;;;;10246867;28;1154;-74
2023/01/01 16:31:18;;;;;;;;;;;19.10;53.40;;;;;;10249037;28;877;-74
2023/01/01 16:36:13;;;;;;;;;;;19.00;53.30;;;;;;10249858;28;1143;-74
2023/01/01 16:41:09;;;;;;;;;;;19.00;53.30;;;;;;10250166;28;1944;-74
2023/01/01 16:46:04;;;;;;;;;;;18.90;53.20;;;;;;10250119;28;910;-74
2023/01/01 16:50:59;;;;;;;;;;;19.00;53.10;;;;;;10249227;28;774;-74
2023/01/01 16:55:55;;;;;;;;;;;19.00;53.10;;;;;;10248963;28;811;-74
2023/01/01 17:00:50;;;;;;;;;;;19.00;53.10;;;;;;10248207;28;1906;-74
2023/01/01 17:05:46;;;;;;;;;;;18.90;53.00;;;;;;10248641;28;951;-74
2023/01/01 17:10:41;;;;;;;;;;;18.90;53.00;;;;;;10248494;28;842;-74
2023/01/01 17:15:36;;;;;;;;;;;18.90;53.00;;;;;;10248341;28;896;-74
2023/01/01 17:20:32;;;;;;;;;;;18.90;53.00;;;;;;10248900;28;936;-74
2023/01/01 17:25:27;;;;;;;;;;;18.90;53.00;;;;;;10247813;28;1970;-74
2023/01/01 17:30:22;;;;;;;;;;;18.90;53.10;;;;;;10248608;28;822;-74
2023/01/01 17:35:18;;;;;;;;;;;18.90;53.00;;;;;;10248529;28;1225;-74
2023/01/01 17:40:13;;;;;;;;;;;18.90;53.10;;;;;;10247365;28;837;-74
2023/01/01 17:45:08;;;;;;;;;;;18.90;53.00;;;;;;10246875;28;1910;-74
2023/01/01 17:50:04;;;;;;;;;;;18.90;53.00;;;;;;10246982;28;849;-74
2023/01/01 17:54:59;;;;;;;;;;;18.90;53.10;;;;;;10246715;28;785;-74
2023/01/01 17:59:57;;;;;;;;;;;18.90;53.10;;;;;;10247741;28;910;-74
2023/01/01 18:04:53;;;;;;;;;;;19.00;53.10;;;;;;10246875;28;1973;-75
2023/01/01 18:09:48;;;;;;;;;;;18.90;53.10;;;;;;10246127;28;1287;-74
2023/01/01 18:14:44;;;;;;;;;;;18.90;53.10;;;;;;10245939;28;781;-74
2023/01/01 18:19:39;;;;;;;;;;;18.90;53.10;;;;;;10245181;28;898;-74
2023/01/01 18:24:35;;;;;;;;;;;18.90;53.20;;;;;;10244932;28;1914;-74
2023/01/01 18:29:30;;;;;;;;;;;18.90;53.10;;;;;;10246124;28;892;-72
2023/01/01 18:34:26;;;;;;;;;;;18.90;53.10;;;;;;10245293;28;1299;-72
2023/01/01 18:39:21;;;;;;;;;;;18.90;53.20;;;;;;10245122;28;857;-74
2023/01/01 18:44:16;;;;;;;;;;;18.90;53.20;;;;;;10244903;28;2032;-74
2023/01/01 18:49:12;;;;;;;;;;;18.90;53.20;;;;;;10244803;28;772;-74
2023/01/01 18:54:07;;;;;;;;;;;18.90;53.20;;;;;;10244673;28;826;-74
2023/01/01 18:59:02;;;;;;;;;;;18.90;53.20;;;;;;10244503;28;921;-74
2023/01/01 19:03:58;;;;;;;;;;;18.90;53.10;;;;;;10244591;28;1965;-74
2023/01/01 19:08:53;;;;;;;;;;;18.90;53.20;;;;;;10244267;28;759;-73
2023/01/01 19:13:48;;;;;;;;;;;18.90;53.20;;;;;;10244745;28;845;-74
2023/01/01 19:18:44;;;;;;;;;;;18.90;53.20;;;;;;10244643;28;961;-74
2023/01/01 19:23:39;;;;;;;;;;;18.90;53.20;;;;;;10244499;28;1902;-74
2023/01/01 19:28:35;;;;;;;;;;;18.90;53.20;;;;;;10243842;28;853;-74
2023/01/01 19:33:30;;;;;;;;;;;18.90;53.50;;;;;;10243978;28;1331;-75
2023/01/01 19:38:25;;;;;;;;;;;18.90;53.30;;;;;;10243746;28;872;-74
2023/01/01 19:43:21;;;;;;;;;;;18.90;53.20;;;;;;10242923;28;1918;-74
2023/01/01 19:48:17;;;;;;;;;;;18.90;53.30;;;;;;10243485;28;771;-74
2023/01/01 19:53:12;;;;;;;;;;;18.90;53.20;;;;;;10243441;28;877;-74
2023/01/01 19:58:08;;;;;;;;;;;18.90;53.20;;;;;;10244550;28;869;-74
2023/01/01 20:03:03;;;;;;;;;;;18.90;53.20;;;;;;10243588;28;1903;-74
2023/01/01 20:07:58;;;;;;;;;;;18.90;53.30;;;;;;10243768;28;798;-74
2023/01/01 20:12:54;;;;;;;;;;;18.80;53.20;;;;;;10249711;28;956;-74
2023/01/01 20:17:49;;;;;;;;;;;18.90;53.20;;;;;;10250531;28;793;-74
2023/01/01 20:22:44;;;;;;;;;;;18.90;53.20;;;;;;10251223;28;1902;-74
2023/01/01 20:32:54;;;;;;;;;;;18.90;53.20;;;;;;10249633;28;1390;-74
2023/01/01 20:37:49;;;;;;;;;;;18.90;53.20;;;;;;10249753;28;799;-74
2023/01/01 20:42:45;;;;;;;;;;;18.90;53.20;;;;;;10250103;28;1910;-74
2023/01/01 20:47:40;;;;;;;;;;;18.90;53.20;;;;;;10249411;28;945;-74
2023/01/01 20:52:35;;;;;;;;;;;18.90;53.20;;;;;;10249159;28;907;-74
2023/01/01 20:57:31;;;;;;;;;;;18.90;53.30;;;;;;10249618;28;905;-74
2023/01/01 21:02:28;;;;;;;;;;;18.90;53.30;;;;;;10249380;28;1906;-74
2023/01/01 21:07:23;;;;;;;;;;;18.90;53.90;;;;;;10248975;28;782;-74
2023/01/01 21:12:19;;;;;;;;;;;18.80;53.30;;;;;;10248471;28;934;-74
2023/01/01 21:17:14;;;;;;;;;;;18.80;53.30;;;;;;10248857;28;869;-74
2023/01/01 21:22:09;;;;;;;;;;;18.80;53.40;;;;;;10247617;28;1902;-74
2023/01/01 21:27:05;;;;;;;;;;;18.80;53.40;;;;;;10247914;28;763;-74
2023/01/01 21:32:00;;;;;;;;;;;18.70;53.30;;;;;;10247688;28;1029;-74
2023/01/01 21:36:56;;;;;;;;;;;18.70;53.50;;;;;;10247601;28;967;-74
2023/01/01 21:41:51;;;;;;;;;;;18.70;53.30;;;;;;10246677;28;1911;-74
2023/01/01 21:46:49;;;;;;;;;;;18.70;53.30;;;;;;10247112;28;854;-74
2023/01/01 21:51:45;;;;;;;;;;;18.70;53.30;;;;;;10247421;28;828;-74
2023/01/01 21:56:40;;;;;;;;;;;18.70;53.40;;;;;;10246693;28;858;-74
2023/01/01 22:01:36;;;;;;;;;;;18.70;53.30;;;;;;10247048;28;1907;-74
2023/01/01 22:06:32;;;;;;;;;;;18.70;53.30;;;;;;10245760;28;1118;-74
2023/01/01 22:11:28;;;;;;;;;;;18.70;53.30;;;;;;10246187;28;898;-74
2023/01/01 22:16:23;;;;;;;;;;;18.70;53.20;;;;;;10246586;28;777;-74
2023/01/01 22:21:19;;;;;;;;;;;18.70;53.30;;;;;;10245745;28;1975;-74
2023/01/01 22:26:14;;;;;;;;;;;18.70;53.20;;;;;;10245642;28;818;-74
2023/01/01 22:31:09;;;;;;;;;;;18.70;53.30;;;;;;10245433;28;731;-69
2023/01/01 22:36:05;;;;;;;;;;;18.70;53.30;;;;;;10244393;28;1325;-75
2023/01/01 22:41:00;;;;;;;;;;;18.70;53.40;;;;;;10245067;28;1977;-75
2023/01/01 22:45:55;;;;;;;;;;;18.70;53.40;;;;;;10244952;28;802;-75
2023/01/01 22:50:51;;;;;;;;;;;18.70;53.40;;;;;;10245385;28;850;-75
2023/01/01 22:55:46;;;;;;;;;;;18.70;53.40;;;;;;10245005;28;861;-75
2023/01/01 23:00:42;;;;;;;;;;;18.70;53.50;;;;;;10244522;28;957;-75
2023/01/01 23:05:37;;;;;;;;;;;18.70;53.60;;;;;;10244744;28;1902;-75
2023/01/01 23:10:32;;;;;;;;;;;18.70;53.60;;;;;;10244285;28;807;-75
2023/01/01 23:20:41;;;;;;;;;;;18.70;53.70;;;;;;10244325;28;613;-75
2023/01/01 23:25:37;;;;;;;;;;;18.70;53.70;;;;;;10244424;28;1886;-75
2023/01/01 23:30:32;;;;;;;;;;;18.70;53.60;;;;;;10244080;28;921;-75
2023/01/01 23:35:28;;;;;;;;;;;18.70;53.60;;;;;;10244607;28;1306;-75
2023/01/01 23:40:23;;;;;;;;;;;18.70;53.50;;;;;;10244319;28;885;-75
2023/01/01 23:45:19;;;;;;;;;;;18.70;53.60;;;;;;10246962;28;1899;-75
2023/01/01 23:50:14;;;;;;;;;;;18.70;53.60;;;;;;10251579;28;815;-75
2023/01/01 23:55:09;;;;;;;;;;;18.70;53.50;;;;;;10251379;28;810;-75
